SHASTA DAM (USBR) (SHA)

Elevation: 1067' · SACRAMENTO R basin · Operator: US Bureau of Reclamation

Provisional data, subject to change.
Query executed Sunday at 4:43:22   clock

Select a sensor type for a plot of data.
Note: Reservoir Flows are daily averages.

Earlier

Date RES ELE    STORAGE    RES CHG    TOC STO    ABV TOC    OUTFLOW    INFLOW    EVAP    FNF    RIV REL    PPT INC    RAIN    SPILL    DIS PWR   
 FEET   AF   AF   AF   AF   CFS   CFS   CFS   CFS   CFS   INCHES   INCHES   CFS   CFS  
08/01/2015 956.40 1984514 -5826 4552100 -2567586 5313 2547 171 2181 0 0.00 49.79 0 5313
08/02/2015 956.06 1978687 -5827 4552100 -2573413 5472 2700 166 2510 0 0.00 49.79 0 5472
08/03/2015 955.70 1972549 -6138 4552100 -2579551 5693 2763 165 2588 0 0.00 49.79 0 5693
08/04/2015 955.34 1966418 -6131 4552100 -2585682 5187 2311 215 2309 0 0.00 49.79 0 5187
08/05/2015 954.91 1959103 -7315 4552100 -2592997 5313 1829 204 2466 0 0.00 49.79 0 5313
08/06/2015 954.45 1951315 -7788 4552100 -2600785 5409 1597 114 2157 0 0.00 49.79 0 5409
08/07/2015 953.96 1943023 -8292 4552100 -- 5397 1356 139 2467 0 0.00 49.79 0 5397
08/08/2015 953.56 1936291 -6732 4552100 -2615809 5423 2202 173 2164 0 0.00 49.79 0 5423
08/09/2015 953.12 1928886 -7405 4552100 -2623214 5333 1748 148 2191 0 0.00 49.79 0 5333
08/10/2015 952.78 1923187 -5699 4552100 -2628913 5031 2301 143 2465 0 0.00 49.79 0 5031
08/11/2015 952.40 1916831 -6356 4552100 -2635269 5347 2271 128 2296 0 0.00 49.79 0 5347
08/12/2015 951.86 1907814 -9017 4552100 -2644286 5104 720 162 2600 e 0 0.00 49.79 0 5104
08/13/2015 951.50 1901829 -- 4552100 -2650271 5350 2499 166 2307 0 0.00 49.79 0 5350
08/14/2015 950.96 1892855 -8974 4552100 -2659245 6369 2030 185 2219 0 0.00 49.79 0 6369
08/15/2015 950.48 1884926 -7929 4552100 -2667174 5953 2073 117 2041 0 0.00 49.79 0 5953
08/16/2015 950.11 1878813 -6113 4552100 -2673287 5259 2347 170 2131 0 0.00 49.79 0 5259
08/17/2015 949.91 1875518 -3295 4552100 -2676582 5388 3945 218 2374 0 0.00 49.79 0 5388
08/18/2015 949.64 1871083 -4435 4552100 -2681017 4632 2560 164 2239 0 0.00 49.79 0 4632
08/19/2015 949.26 1864842 -6241 4552100 -2687258 5368 2405 183 2439 0 0.00 49.79 0 5368
08/20/2015 948.84 1857959 -6883 4552100 -2694141 5149 1819 140 2259 0 0.00 49.79 0 5149
08/21/2015 948.42 1851103 -6856 4552100 -2700997 5635 2308 130 2332 0 0.00 49.79 0 5635
08/22/2015 947.97 1843759 -7344 4552100 -2708341 5648 2093 148 2221 0 0.00 49.79 0 5648
08/23/2015 947.64 1838407 -5352 4552100 -2713693 4695 2140 143 2207 0 0.00 49.79 0 4695
08/24/2015 947.15 1830460 -7947 4552100 -2721640 5993 2172 186 2285 0 0.00 49.79 0 5993
08/25/2015 946.75 1823997 -6463 4552100 -2728103 5381 2289 166 2400 0 0.00 49.79 0 5381
08/26/2015 946.41 1818515 -5482 4552100 -2733585 5276 2645 133 2319 0 0.00 49.79 0 5276
08/27/2015 946.03 1812389 -6126 4552100 -2739711 4655 1733 166 1769 0 0.00 49.79 0 4655
08/28/2015 945.66 1806458 -5931 4552100 -2745642 5445 2620 165 2085 0 0.00 49.79 0 5445
08/29/2015 945.27 1800209 -- -- -- 5494 2509 165 2508 0 0.00 -- 0 5494
08/30/2015 -- -- -- -- -- -- -- -- -- -- -- -- -- --

Later | Latest

Warning! This data is preliminary and subject to revision.

Show SHA Map | Plot SHA Data | 1 Month SHA Data | Real-Time SHA Data | SHA Info